createdAt,value
2022-08-17T00:00:43.678Z,19.31
2022-08-17T00:03:13.669Z,19.23
2022-08-17T00:05:49.636Z,19.08
2022-08-17T00:08:20.433Z,19.01
2022-08-17T00:10:50.636Z,18.98
2022-08-17T00:13:22.038Z,18.93
2022-08-17T00:15:51.031Z,18.93
2022-08-17T00:19:01.315Z,19.12
2022-08-17T00:21:11.386Z,19.10
2022-08-17T00:23:44.325Z,19.07
2022-08-17T00:26:43.551Z,18.73
2022-08-17T00:29:09.463Z,18.30
2022-08-17T00:31:47.928Z,18.11
2022-08-17T00:34:16.503Z,17.94
2022-08-17T00:36:46.655Z,17.89
2022-08-17T00:39:15.105Z,17.90
2022-08-17T00:41:43.726Z,17.85
2022-08-17T00:44:12.472Z,17.87
2022-08-17T00:46:43.133Z,17.83
2022-08-17T00:49:13.615Z,18.11
2022-08-17T00:51:45.564Z,18.18
2022-08-17T00:54:20.140Z,18.09
2022-08-17T00:56:52.124Z,18.08
2022-08-17T00:59:24.223Z,18.04
2022-08-17T01:01:53.936Z,18.08
2022-08-17T01:04:24.429Z,17.73
2022-08-17T01:06:53.707Z,17.63
2022-08-17T01:09:24.263Z,17.47
2022-08-17T01:11:53.226Z,17.37
2022-08-17T01:14:22.518Z,17.41
2022-08-17T01:16:52.721Z,17.23
2022-08-17T01:19:23.854Z,17.12
2022-08-17T01:21:56.445Z,17.05
2022-08-17T01:24:26.647Z,17.03
2022-08-17T01:26:56.513Z,17.06
2022-08-17T01:29:27.200Z,17.03
2022-08-17T01:31:58.732Z,17.23
2022-08-17T01:34:38.059Z,17.11
2022-08-17T01:37:13.984Z,17.14
2022-08-17T01:39:48.913Z,17.00
2022-08-17T01:42:24.186Z,16.94
2022-08-17T01:44:57.169Z,17.06
2022-08-17T01:47:25.782Z,16.96
2022-08-17T01:49:54.200Z,16.94
2022-08-17T01:52:24.021Z,17.01
2022-08-17T01:54:54.738Z,16.92
2022-08-17T01:57:22.952Z,16.95
2022-08-17T01:59:51.428Z,16.98
2022-08-17T02:02:30.260Z,16.95
2022-08-17T02:05:01.090Z,16.88
2022-08-17T02:07:30.106Z,16.76
2022-08-17T02:10:00.744Z,16.78
2022-08-17T02:12:37.862Z,16.83
2022-08-17T02:15:09.047Z,16.77
2022-08-17T02:17:37.713Z,16.90
2022-08-17T02:20:08.041Z,17.11
2022-08-17T02:22:37.822Z,17.23
2022-08-17T02:25:10.959Z,17.39
2022-08-17T02:27:40.647Z,17.22
2022-08-17T02:30:59.243Z,16.98
2022-08-17T02:33:04.058Z,16.97
2022-08-17T02:35:34.826Z,16.89
2022-08-17T02:38:06.186Z,16.73
2022-08-17T02:40:37.226Z,16.71
2022-08-17T02:43:05.814Z,16.60
2022-08-17T02:45:37.677Z,16.63
2022-08-17T02:48:06.576Z,16.63
2022-08-17T02:50:35.128Z,16.69
2022-08-17T02:53:04.039Z,16.84
2022-08-17T02:55:36.901Z,16.80
2022-08-17T02:58:05.836Z,16.68
2022-08-17T03:00:37.029Z,16.59
2022-08-17T03:03:07.356Z,16.61
2022-08-17T03:05:39.340Z,16.54
2022-08-17T03:08:13.211Z,16.59
2022-08-17T03:10:45.136Z,16.59
2022-08-17T03:13:15.902Z,16.63
2022-08-17T03:15:46.560Z,16.72
2022-08-17T03:18:24.088Z,16.79
2022-08-17T03:20:53.941Z,16.80
2022-08-17T03:23:24.331Z,16.81
2022-08-17T03:25:55.863Z,16.78
2022-08-17T03:28:25.008Z,16.92
2022-08-17T03:30:53.938Z,16.94
2022-08-17T03:33:22.679Z,16.97
2022-08-17T03:35:51.843Z,16.98
2022-08-17T03:38:20.603Z,17.04
2022-08-17T03:40:58.410Z,17.04
2022-08-17T03:43:31.653Z,17.09
2022-08-17T03:46:27.724Z,17.18
2022-08-17T03:49:21.524Z,17.26
2022-08-17T03:52:07.545Z,17.35
2022-08-17T03:54:53.293Z,17.42
2022-08-17T03:57:21.927Z,17.55
2022-08-17T03:59:52.008Z,17.57
2022-08-17T04:02:23.350Z,17.63
2022-08-17T04:04:52.571Z,17.70
2022-08-17T04:07:22.226Z,17.76
2022-08-17T04:09:51.089Z,17.80
2022-08-17T04:12:21.662Z,17.89
2022-08-17T04:14:54.769Z,17.93
2022-08-17T04:17:26.471Z,18.20
2022-08-17T04:19:56.526Z,18.15
2022-08-17T04:22:31.184Z,18.18
2022-08-17T04:25:04.952Z,18.25
2022-08-17T04:27:33.670Z,18.38
2022-08-17T04:30:03.669Z,18.48
2022-08-17T04:32:59.307Z,18.56
2022-08-17T04:35:24.157Z,18.79
2022-08-17T04:37:53.312Z,18.88
2022-08-17T04:40:40.404Z,18.97
2022-08-17T04:43:11.038Z,19.07
2022-08-17T04:45:51.250Z,19.18
2022-08-17T04:48:35.783Z,19.24
2022-08-17T04:51:10.124Z,19.31
2022-08-17T04:53:40.757Z,19.50
2022-08-17T04:56:11.719Z,19.73
2022-08-17T04:58:46.561Z,19.85
2022-08-17T05:01:23.781Z,19.72
2022-08-17T05:03:53.512Z,19.72
2022-08-17T05:06:22.247Z,19.81
2022-08-17T05:08:51.019Z,19.73
2022-08-17T05:11:19.851Z,19.81
2022-08-17T05:13:51.119Z,20.16
2022-08-17T05:16:22.678Z,20.45
2022-08-17T05:18:51.623Z,20.39
2022-08-17T05:21:21.381Z,20.31
2022-08-17T05:23:54.921Z,20.33
2022-08-17T05:26:25.975Z,20.37
2022-08-17T05:28:57.274Z,20.64
2022-08-17T05:31:30.744Z,20.65
2022-08-17T05:33:59.404Z,20.66
2022-08-17T05:36:42.154Z,20.98
2022-08-17T05:39:15.725Z,21.14
2022-08-17T05:41:47.590Z,21.08
2022-08-17T05:44:16.571Z,21.19
2022-08-17T05:46:50.390Z,21.37
2022-08-17T05:49:24.676Z,21.46
2022-08-17T05:52:19.757Z,21.48
2022-08-17T05:55:11.961Z,21.29
2022-08-17T05:57:54.180Z,21.34
2022-08-17T06:00:30.889Z,21.39
2022-08-17T06:03:23.902Z,21.56
2022-08-17T06:06:31.366Z,21.68
2022-08-17T06:09:12.740Z,21.81
2022-08-17T06:11:53.436Z,21.78
2022-08-17T06:14:40.780Z,21.77
2022-08-17T06:17:16.799Z,22.01
2022-08-17T06:19:52.505Z,21.96
2022-08-17T06:22:24.766Z,21.96
2022-08-17T06:24:59.009Z,21.95
2022-08-17T06:27:34.247Z,21.87
2022-08-17T06:30:09.427Z,21.79
2022-08-17T06:32:39.954Z,21.68
2022-08-17T06:35:11.765Z,21.69
2022-08-17T06:37:57.586Z,21.78
2022-08-17T06:40:41.585Z,21.78
2022-08-17T06:43:24.662Z,21.83
2022-08-17T06:46:00.760Z,21.74
2022-08-17T06:48:42.862Z,21.97
2022-08-17T06:51:20.440Z,22.00
2022-08-17T06:53:54.243Z,22.16
2022-08-17T06:56:53.826Z,22.15
2022-08-17T06:59:26.899Z,22.34
2022-08-17T07:02:29.077Z,22.46
2022-08-17T07:05:14.663Z,22.39
2022-08-17T07:08:05.821Z,22.39
2022-08-17T07:10:40.833Z,22.70
2022-08-17T07:13:29.639Z,22.83
2022-08-17T07:16:09.846Z,23.00
2022-08-17T07:18:38.443Z,23.20
2022-08-17T07:21:20.731Z,23.32
2022-08-17T07:24:05.423Z,23.51
2022-08-17T07:26:34.106Z,23.46
2022-08-17T07:29:03.682Z,23.56
2022-08-17T07:31:33.864Z,23.58
2022-08-17T07:34:08.144Z,23.54
2022-08-17T07:36:36.885Z,23.39
2022-08-17T07:39:07.003Z,23.58
2022-08-17T07:41:53.068Z,23.72
2022-08-17T07:44:28.448Z,23.74
2022-08-17T07:47:15.472Z,23.75
2022-08-17T07:49:47.586Z,23.76
2022-08-17T07:52:51.882Z,23.87
2022-08-17T07:55:30.702Z,23.88
2022-08-17T07:58:00.480Z,24.07
2022-08-17T08:00:32.111Z,24.32
2022-08-17T08:03:06.560Z,24.30
2022-08-17T08:05:50.083Z,24.33
2022-08-17T08:08:38.947Z,24.38
2022-08-17T08:11:11.685Z,24.49
2022-08-17T08:13:44.023Z,24.64
2022-08-17T08:16:30.587Z,24.73
2022-08-17T08:19:01.207Z,24.66
2022-08-17T08:21:47.705Z,24.77
2022-08-17T08:24:37.866Z,24.96
2022-08-17T08:27:19.821Z,24.98
2022-08-17T08:29:54.427Z,25.07
2022-08-17T08:32:37.496Z,25.07
2022-08-17T08:35:10.011Z,25.11
2022-08-17T08:37:49.732Z,25.29
2022-08-17T08:40:38.548Z,25.20
2022-08-17T08:43:22.332Z,25.44
2022-08-17T08:45:58.907Z,25.40
2022-08-17T08:48:57.798Z,25.19
2022-08-17T08:51:39.891Z,25.10
2022-08-17T08:54:16.733Z,25.28
2022-08-17T08:57:23.114Z,25.22
2022-08-17T09:00:08.851Z,25.19
2022-08-17T09:03:04.031Z,25.46
2022-08-17T09:05:48.431Z,25.32
2022-08-17T09:08:26.267Z,25.41
2022-08-17T09:11:01.307Z,25.30
2022-08-17T09:13:39.451Z,25.39
2022-08-17T09:16:16.211Z,25.47
2022-08-17T09:19:03.527Z,25.50
2022-08-17T09:21:48.030Z,25.72
2022-08-17T09:24:25.979Z,25.78
2022-08-17T09:27:03.878Z,25.91
2022-08-17T09:29:35.564Z,26.01
2022-08-17T09:32:14.993Z,26.02
2022-08-17T09:34:50.947Z,25.97
2022-08-17T09:37:28.826Z,26.22
2022-08-17T09:40:09.709Z,26.27
2022-08-17T09:42:46.821Z,26.32
2022-08-17T09:45:29.263Z,26.35
2022-08-17T09:48:03.480Z,26.67
2022-08-17T09:51:03.610Z,26.65
2022-08-17T09:53:27.022Z,26.56
2022-08-17T09:56:18.848Z,26.53
2022-08-17T09:59:04.288Z,26.70
2022-08-17T10:01:40.118Z,26.69
2022-08-17T10:04:29.369Z,26.80
2022-08-17T10:07:08.476Z,26.81
2022-08-17T10:09:48.637Z,26.83
2022-08-17T10:12:30.264Z,26.99
2022-08-17T10:15:15.459Z,27.11
2022-08-17T10:17:57.319Z,27.11
2022-08-17T10:20:31.485Z,27.20
2022-08-17T10:23:36.882Z,27.07
2022-08-17T10:26:15.585Z,27.30
2022-08-17T10:28:51.390Z,27.31
2022-08-17T10:31:40.056Z,27.50
2022-08-17T10:34:41.238Z,27.50
2022-08-17T10:37:35.254Z,27.48
2022-08-17T10:40:20.527Z,27.61
2022-08-17T10:42:56.256Z,27.77
2022-08-17T10:45:29.763Z,27.76
2022-08-17T10:48:06.157Z,27.77
2022-08-17T10:50:59.024Z,27.80
2022-08-17T10:53:54.508Z,27.86
2022-08-17T10:56:26.356Z,27.83
2022-08-17T10:58:57.766Z,27.98
2022-08-17T11:02:04.043Z,27.90
2022-08-17T11:04:50.130Z,28.00
2022-08-17T11:07:34.061Z,28.19
2022-08-17T11:10:21.114Z,28.22
2022-08-17T11:13:01.309Z,28.24
2022-08-17T11:15:47.570Z,28.28
2022-08-17T11:18:45.387Z,28.01
2022-08-17T11:21:57.467Z,27.98
2022-08-17T11:24:35.631Z,27.99
2022-08-17T11:27:12.358Z,27.93
2022-08-17T11:29:56.769Z,27.93
2022-08-17T11:32:37.170Z,27.77
2022-08-17T11:35:30.586Z,27.54
2022-08-17T11:38:16.714Z,27.49
2022-08-17T11:41:07.223Z,27.50
2022-08-17T11:44:04.455Z,27.28
2022-08-17T11:47:06.546Z,27.40
2022-08-17T11:50:08.155Z,27.49
2022-08-17T11:52:40.486Z,27.36
2022-08-17T11:55:34.141Z,27.21
2022-08-17T11:58:03.707Z,27.30
2022-08-17T12:00:51.983Z,27.18
2022-08-17T12:03:25.026Z,27.23
2022-08-17T12:06:04.514Z,27.20
2022-08-17T12:08:35.767Z,27.28
2022-08-17T12:11:08.757Z,27.17
2022-08-17T12:13:48.111Z,27.33
2022-08-17T12:16:20.061Z,27.44
2022-08-17T12:18:54.009Z,27.42
2022-08-17T12:21:38.814Z,27.29
2022-08-17T12:24:16.666Z,27.30
2022-08-17T12:26:53.450Z,27.34
2022-08-17T12:29:35.467Z,27.50
2022-08-17T12:32:17.911Z,27.49
2022-08-17T12:34:48.016Z,27.45
2022-08-17T12:37:20.106Z,27.37
2022-08-17T12:39:54.185Z,27.48
2022-08-17T12:42:25.910Z,27.35
2022-08-17T12:44:54.606Z,27.41
2022-08-17T12:47:24.663Z,27.32
2022-08-17T12:50:29.033Z,27.42
2022-08-17T12:53:01.715Z,27.41
2022-08-17T12:55:36.449Z,27.47
2022-08-17T12:58:05.461Z,27.35
2022-08-17T13:00:38.215Z,27.28
2022-08-17T13:03:14.386Z,27.22
2022-08-17T13:05:48.634Z,27.22
2022-08-17T13:08:20.202Z,27.23
2022-08-17T13:10:57.730Z,27.11
2022-08-17T13:13:29.127Z,27.13
2022-08-17T13:16:00.825Z,27.20
2022-08-17T13:18:42.530Z,27.04
2022-08-17T13:21:22.414Z,26.89
2022-08-17T13:24:03.315Z,26.89
2022-08-17T13:26:35.585Z,26.96
2022-08-17T13:29:07.834Z,26.79
2022-08-17T13:31:52.379Z,26.89
2022-08-17T13:34:50.246Z,26.76
2022-08-17T13:37:33.734Z,26.68
2022-08-17T13:40:26.444Z,26.54
2022-08-17T13:42:56.772Z,26.76
2022-08-17T13:45:44.867Z,26.58
2022-08-17T13:48:21.448Z,26.64
2022-08-17T13:51:20.886Z,26.78
2022-08-17T13:53:55.026Z,26.66
2022-08-17T13:56:39.513Z,26.64
2022-08-17T13:59:12.567Z,26.62
2022-08-17T14:01:44.006Z,26.72
2022-08-17T14:04:15.000Z,26.77
2022-08-17T14:06:54.147Z,26.69
2022-08-17T14:09:25.444Z,26.60
2022-08-17T14:11:55.601Z,26.34
2022-08-17T14:14:24.666Z,26.38
2022-08-17T14:16:54.183Z,26.44
2022-08-17T14:19:23.264Z,26.38
2022-08-17T14:21:59.118Z,26.32
2022-08-17T14:24:30.603Z,26.37
2022-08-17T14:27:03.563Z,26.41
2022-08-17T14:29:34.524Z,26.31
2022-08-17T14:32:13.338Z,26.35
2022-08-17T14:34:42.405Z,26.32
2022-08-17T14:37:12.424Z,26.48
2022-08-17T14:39:41.074Z,26.22
2022-08-17T14:42:11.572Z,26.43
2022-08-17T14:44:40.367Z,26.55
2022-08-17T14:47:12.143Z,26.38
2022-08-17T14:49:40.649Z,26.16
2022-08-17T14:52:13.980Z,26.13
2022-08-17T14:54:45.836Z,26.32
2022-08-17T14:57:25.207Z,26.35
2022-08-17T15:00:03.522Z,26.44
2022-08-17T15:02:32.220Z,26.48
2022-08-17T15:05:02.120Z,26.28
2022-08-17T15:07:32.225Z,26.26
2022-08-17T15:10:02.493Z,26.12
2022-08-17T15:12:34.274Z,26.26
2022-08-17T15:15:05.332Z,26.26
2022-08-17T15:17:44.837Z,26.13
2022-08-17T15:20:16.902Z,26.13
2022-08-17T15:22:49.982Z,26.01
2022-08-17T15:25:22.344Z,26.08
2022-08-17T15:27:52.889Z,25.84
2022-08-17T15:30:22.044Z,25.78
2022-08-17T15:32:55.153Z,25.44
2022-08-17T15:35:27.718Z,25.59
2022-08-17T15:38:06.277Z,25.13
2022-08-17T15:40:37.704Z,25.06
2022-08-17T15:43:07.521Z,25.23
2022-08-17T15:45:36.075Z,25.22
2022-08-17T15:48:05.256Z,25.16
2022-08-17T15:50:33.849Z,24.96
2022-08-17T15:53:05.459Z,24.63
2022-08-17T15:55:36.711Z,24.64
2022-08-17T15:58:05.757Z,24.69
2022-08-17T16:00:44.102Z,24.90
2022-08-17T16:04:01.841Z,24.93
2022-08-17T16:06:12.011Z,25.24
2022-08-17T16:08:44.016Z,25.55
2022-08-17T16:11:14.358Z,25.76
2022-08-17T16:13:47.395Z,25.88
2022-08-17T16:16:24.576Z,25.88
2022-08-17T16:18:55.572Z,26.13
2022-08-17T16:21:31.171Z,26.02
2022-08-17T16:24:14.845Z,26.26
2022-08-17T16:26:43.800Z,26.42
2022-08-17T16:29:12.563Z,26.37
2022-08-17T16:31:42.036Z,26.44
2022-08-17T16:34:16.753Z,26.13
2022-08-17T16:36:55.385Z,26.06
2022-08-17T16:39:27.457Z,26.25
2022-08-17T16:41:56.783Z,26.11
2022-08-17T16:44:29.141Z,25.80
2022-08-17T16:46:58.818Z,25.90
2022-08-17T16:49:37.046Z,26.05
2022-08-17T16:52:10.563Z,26.20
2022-08-17T16:54:43.912Z,26.32
2022-08-17T16:57:13.558Z,26.08
2022-08-17T16:59:47.790Z,26.12
2022-08-17T17:02:18.094Z,26.01
2022-08-17T17:04:51.968Z,26.03
2022-08-17T17:07:39.243Z,25.85
2022-08-17T17:10:14.724Z,25.92
2022-08-17T17:13:03.619Z,25.74
2022-08-17T17:15:47.719Z,25.43
2022-08-17T17:18:18.064Z,25.11
2022-08-17T17:20:56.459Z,24.79
2022-08-17T17:23:43.137Z,25.00
2022-08-17T17:26:33.181Z,24.52
2022-08-17T17:29:15.304Z,24.31
2022-08-17T17:31:52.655Z,24.11
2022-08-17T17:34:22.396Z,24.00
2022-08-17T17:36:53.504Z,23.77
2022-08-17T17:39:43.836Z,23.58
2022-08-17T17:42:20.081Z,23.38
2022-08-17T17:44:52.778Z,23.37
2022-08-17T17:47:22.403Z,22.83
2022-08-17T17:49:51.758Z,22.71
2022-08-17T17:52:29.693Z,22.71
2022-08-17T17:55:08.929Z,22.58
2022-08-17T17:57:51.743Z,22.47
2022-08-17T18:00:24.818Z,22.72
2022-08-17T18:03:12.880Z,22.93
2022-08-17T18:05:50.022Z,23.08
2022-08-17T18:08:35.960Z,23.09
2022-08-17T18:11:24.118Z,23.16
2022-08-17T18:14:09.143Z,23.13
2022-08-17T18:16:42.898Z,23.14
2022-08-17T18:19:14.943Z,23.05
2022-08-17T18:21:48.643Z,22.95
2022-08-17T18:24:29.122Z,22.83
2022-08-17T18:26:58.903Z,22.65
2022-08-17T18:29:36.517Z,22.16
2022-08-17T18:32:25.984Z,21.71
2022-08-17T18:34:56.843Z,21.33
2022-08-17T18:37:39.127Z,21.09
2022-08-17T18:40:33.084Z,20.92
2022-08-17T18:43:08.628Z,21.09
2022-08-17T18:45:43.323Z,21.38
2022-08-17T18:48:22.298Z,21.31
2022-08-17T18:50:53.349Z,21.41
2022-08-17T18:53:33.270Z,21.42
2022-08-17T18:56:22.900Z,21.49
2022-08-17T18:59:04.266Z,21.53
2022-08-17T19:02:16.118Z,21.58
2022-08-17T19:05:01.079Z,21.23
2022-08-17T19:07:32.313Z,20.28
2022-08-17T19:10:12.206Z,19.74
2022-08-17T19:12:45.487Z,19.49
2022-08-17T19:15:18.886Z,19.38
2022-08-17T19:17:53.794Z,19.38
2022-08-17T19:20:30.093Z,19.60
2022-08-17T19:23:11.675Z,19.96
2022-08-17T19:25:47.020Z,20.26
2022-08-17T19:28:24.239Z,20.28
2022-08-17T19:30:58.001Z,20.47
2022-08-17T19:33:28.519Z,19.81
2022-08-17T19:36:07.364Z,19.33
2022-08-17T19:38:45.379Z,19.03
2022-08-17T19:41:23.080Z,18.94
2022-08-17T19:44:27.299Z,18.92
2022-08-17T19:47:06.134Z,18.89
2022-08-17T19:49:46.899Z,18.91
2022-08-17T19:52:33.178Z,18.95
2022-08-17T19:55:08.177Z,19.19
2022-08-17T19:57:45.435Z,19.33
2022-08-17T20:00:17.556Z,19.54
2022-08-17T20:02:52.895Z,19.58
2022-08-17T20:05:27.149Z,19.70
2022-08-17T20:08:01.717Z,19.62
2022-08-17T20:10:39.642Z,19.72
2022-08-17T20:13:12.978Z,19.75
2022-08-17T20:15:43.707Z,19.80
2022-08-17T20:18:17.461Z,19.78
2022-08-17T20:20:57.988Z,19.69
2022-08-17T20:23:44.184Z,19.76
2022-08-17T20:26:20.229Z,19.78
2022-08-17T20:29:37.555Z,19.73
2022-08-17T20:32:16.590Z,19.57
2022-08-17T20:34:48.950Z,19.64
2022-08-17T20:37:35.471Z,19.36
2022-08-17T20:40:23.684Z,18.79
2022-08-17T20:42:52.524Z,18.53
2022-08-17T20:45:59.345Z,18.16
2022-08-17T20:48:38.284Z,17.87
2022-08-17T20:51:19.495Z,17.61
2022-08-17T20:54:23.526Z,17.53
2022-08-17T20:56:57.906Z,17.45
2022-08-17T21:00:01.542Z,17.41
2022-08-17T21:02:33.108Z,17.39
2022-08-17T21:05:30.333Z,17.86
2022-08-17T21:08:02.607Z,17.68
2022-08-17T21:10:39.506Z,17.49
2022-08-17T21:13:38.738Z,17.29
2022-08-17T21:16:24.863Z,17.13
2022-08-17T21:19:02.659Z,17.08
2022-08-17T21:21:42.664Z,17.31
2022-08-17T21:24:28.479Z,17.57
2022-08-17T21:27:09.639Z,17.60
2022-08-17T21:29:54.178Z,17.73
2022-08-17T21:32:31.275Z,17.89
2022-08-17T21:35:23.722Z,17.88
2022-08-17T21:37:55.383Z,17.57
2022-08-17T21:40:28.016Z,17.66
2022-08-17T21:43:01.826Z,17.59
2022-08-17T21:45:35.284Z,17.16
2022-08-17T21:48:14.485Z,16.73
2022-08-17T21:50:45.138Z,16.47
2022-08-17T21:53:23.118Z,16.38
2022-08-17T21:55:53.259Z,16.25
2022-08-17T21:58:31.383Z,16.27
2022-08-17T22:01:24.284Z,16.38
2022-08-17T22:04:20.098Z,16.15
2022-08-17T22:06:56.845Z,15.89
2022-08-17T22:09:29.077Z,15.81
2022-08-17T22:12:06.017Z,15.60
2022-08-17T22:14:52.345Z,15.94
2022-08-17T22:17:26.311Z,16.31
2022-08-17T22:19:57.493Z,16.50
2022-08-17T22:22:33.110Z,16.70
2022-08-17T22:25:04.310Z,16.38
2022-08-17T22:27:47.208Z,16.11
2022-08-17T22:30:20.995Z,15.93
2022-08-17T22:32:50.005Z,15.77
2022-08-17T22:35:42.081Z,15.60
2022-08-17T22:38:32.956Z,15.56
2022-08-17T22:41:37.111Z,15.58
2022-08-17T22:44:27.330Z,15.54
2022-08-17T22:47:02.067Z,15.53
2022-08-17T22:49:34.314Z,15.53
2022-08-17T22:52:09.311Z,15.55
2022-08-17T22:54:55.371Z,15.54
2022-08-17T22:57:51.711Z,15.54
2022-08-17T23:00:38.657Z,15.44
2022-08-17T23:03:25.679Z,15.35
2022-08-17T23:06:06.254Z,15.46
2022-08-17T23:08:38.852Z,15.53
2022-08-17T23:11:07.977Z,15.49
2022-08-17T23:13:38.381Z,15.52
2022-08-17T23:16:07.042Z,15.56
2022-08-17T23:18:37.612Z,15.37
2022-08-17T23:21:08.281Z,15.34
2022-08-17T23:23:42.005Z,15.29
2022-08-17T23:26:11.625Z,15.24
2022-08-17T23:28:41.245Z,15.20
2022-08-17T23:31:09.995Z,15.26
2022-08-17T23:33:41.731Z,15.13
2022-08-17T23:36:15.464Z,15.17
2022-08-17T23:38:46.910Z,15.23
2022-08-17T23:41:19.376Z,15.29
2022-08-17T23:43:53.083Z,15.27
2022-08-17T23:46:22.544Z,15.33
2022-08-17T23:48:53.618Z,15.30
2022-08-17T23:51:25.366Z,15.20
2022-08-17T23:54:00.481Z,15.18
2022-08-17T23:56:33.684Z,15.12
2022-08-17T23:59:02.984Z,15.16
